sensor_id;sensor_type;location;lat;lon;timestamp;temperature;humidity
75010;DHT22;63564;46.840;18.336;2023-08-08T00:00:20;14.08;85.24
75010;DHT22;63564;46.840;18.336;2023-08-08T00:03:21;14.12;85.29
75010;DHT22;63564;46.840;18.336;2023-08-08T00:06:21;14.12;86.62
75010;DHT22;63564;46.840;18.336;2023-08-08T00:09:22;14.18;84.80
75010;DHT22;63564;46.840;18.336;2023-08-08T00:12:23;14.14;85.78
75010;DHT22;63564;46.840;18.336;2023-08-08T00:15:23;14.11;85.90
75010;DHT22;63564;46.840;18.336;2023-08-08T00:18:23;14.15;84.28
75010;DHT22;63564;46.840;18.336;2023-08-08T00:21:24;14.28;83.90
75010;DHT22;63564;46.840;18.336;2023-08-08T00:24:24;14.22;83.63
75010;DHT22;63564;46.840;18.336;2023-08-08T00:27:25;14.17;83.72
75010;DHT22;63564;46.840;18.336;2023-08-08T00:30:25;14.28;82.54
75010;DHT22;63564;46.840;18.336;2023-08-08T00:33:25;14.28;82.33
75010;DHT22;63564;46.840;18.336;2023-08-08T00:36:26;14.26;82.49
75010;DHT22;63564;46.840;18.336;2023-08-08T00:39:26;14.35;82.02
75010;DHT22;63564;46.840;18.336;2023-08-08T00:42:27;14.35;82.54
75010;DHT22;63564;46.840;18.336;2023-08-08T00:45:28;14.29;83.01
75010;DHT22;63564;46.840;18.336;2023-08-08T00:48:28;14.29;81.68
75010;DHT22;63564;46.840;18.336;2023-08-08T00:51:28;14.33;82.30
75010;DHT22;63564;46.840;18.336;2023-08-08T00:54:29;14.38;81.51
75010;DHT22;63564;46.840;18.336;2023-08-08T00:57:30;14.39;81.02
75010;DHT22;63564;46.840;18.336;2023-08-08T01:00:31;14.38;81.30
75010;DHT22;63564;46.840;18.336;2023-08-08T01:03:32;14.32;81.50
75010;DHT22;63564;46.840;18.336;2023-08-08T01:06:39;14.29;81.86
75010;DHT22;63564;46.840;18.336;2023-08-08T01:09:55;14.21;82.07
75010;DHT22;63564;46.840;18.336;2023-08-08T01:13:03;14.21;81.49
75010;DHT22;63564;46.840;18.336;2023-08-08T01:16:04;14.11;82.23
75010;DHT22;63564;46.840;18.336;2023-08-08T01:19:06;14.11;82.44
75010;DHT22;63564;46.840;18.336;2023-08-08T01:22:15;14.01;82.62
75010;DHT22;63564;46.840;18.336;2023-08-08T01:25:16;13.97;82.55
75010;DHT22;63564;46.840;18.336;2023-08-08T01:28:21;14.04;82.73
75010;DHT22;63564;46.840;18.336;2023-08-08T01:31:24;14.04;82.17
75010;DHT22;63564;46.840;18.336;2023-08-08T01:34:25;14.00;82.20
75010;DHT22;63564;46.840;18.336;2023-08-08T01:37:52;13.97;82.42
75010;DHT22;63564;46.840;18.336;2023-08-08T01:40:56;13.94;82.35
75010;DHT22;63564;46.840;18.336;2023-08-08T01:43:58;13.97;80.40
75010;DHT22;63564;46.840;18.336;2023-08-08T01:46:59;14.12;80.31
75010;DHT22;63564;46.840;18.336;2023-08-08T01:49:59;14.12;80.37
75010;DHT22;63564;46.840;18.336;2023-08-08T01:53:00;14.18;80.94
75010;DHT22;63564;46.840;18.336;2023-08-08T01:56:00;14.21;80.29
75010;DHT22;63564;46.840;18.336;2023-08-08T01:59:03;14.25;80.49
75010;DHT22;63564;46.840;18.336;2023-08-08T02:02:03;14.28;79.91
75010;DHT22;63564;46.840;18.336;2023-08-08T02:05:04;14.30;80.09
75010;DHT22;63564;46.840;18.336;2023-08-08T02:08:05;14.33;80.67
75010;DHT22;63564;46.840;18.336;2023-08-08T02:11:05;14.35;80.42
75010;DHT22;63564;46.840;18.336;2023-08-08T02:14:05;14.32;81.48
75010;DHT22;63564;46.840;18.336;2023-08-08T02:17:06;14.38;81.26
75010;DHT22;63564;46.840;18.336;2023-08-08T02:20:07;14.39;80.40
75010;DHT22;63564;46.840;18.336;2023-08-08T02:23:07;14.45;79.73
75010;DHT22;63564;46.840;18.336;2023-08-08T02:26:07;14.52;79.16
75010;DHT22;63564;46.840;18.336;2023-08-08T02:29:08;14.60;78.86
75010;DHT22;63564;46.840;18.336;2023-08-08T02:32:08;14.75;77.10
75010;DHT22;63564;46.840;18.336;2023-08-08T02:35:09;14.73;77.77
75010;DHT22;63564;46.840;18.336;2023-08-08T02:38:09;14.76;77.11
75010;DHT22;63564;46.840;18.336;2023-08-08T02:41:10;14.75;77.37
75010;DHT22;63564;46.840;18.336;2023-08-08T02:44:10;14.72;77.57
75010;DHT22;63564;46.840;18.336;2023-08-08T02:47:10;14.76;77.37
75010;DHT22;63564;46.840;18.336;2023-08-08T02:50:11;14.70;78.39
75010;DHT22;63564;46.840;18.336;2023-08-08T02:53:11;14.70;77.86
75010;DHT22;63564;46.840;18.336;2023-08-08T02:56:12;14.77;77.09
75010;DHT22;63564;46.840;18.336;2023-08-08T02:59:12;14.79;77.60
75010;DHT22;63564;46.840;18.336;2023-08-08T03:02:12;14.90;76.00
75010;DHT22;63564;46.840;18.336;2023-08-08T03:05:13;14.83;77.33
75010;DHT22;63564;46.840;18.336;2023-08-08T03:08:13;14.73;77.50
75010;DHT22;63564;46.840;18.336;2023-08-08T03:11:14;14.69;78.09
75010;DHT22;63564;46.840;18.336;2023-08-08T03:14:15;14.63;77.50
75010;DHT22;63564;46.840;18.336;2023-08-08T03:17:15;14.55;78.78
75010;DHT22;63564;46.840;18.336;2023-08-08T03:20:16;14.45;78.23
75010;DHT22;63564;46.840;18.336;2023-08-08T03:23:16;14.30;78.94
75010;DHT22;63564;46.840;18.336;2023-08-08T03:26:17;14.24;79.18
75010;DHT22;63564;46.840;18.336;2023-08-08T03:29:17;14.15;79.70
75010;DHT22;63564;46.840;18.336;2023-08-08T03:32:17;14.11;79.53
75010;DHT22;63564;46.840;18.336;2023-08-08T03:35:18;14.01;80.22
75010;DHT22;63564;46.840;18.336;2023-08-08T03:38:18;13.97;80.05
75010;DHT22;63564;46.840;18.336;2023-08-08T03:41:19;13.95;79.50
75010;DHT22;63564;46.840;18.336;2023-08-08T03:44:19;13.98;78.40
75010;DHT22;63564;46.840;18.336;2023-08-08T03:47:19;13.98;79.41
75010;DHT22;63564;46.840;18.336;2023-08-08T03:50:22;13.90;79.34
75010;DHT22;63564;46.840;18.336;2023-08-08T03:53:22;13.90;79.83
75010;DHT22;63564;46.840;18.336;2023-08-08T03:56:23;13.90;79.42
75010;DHT22;63564;46.840;18.336;2023-08-08T03:59:23;13.88;79.81
75010;DHT22;63564;46.840;18.336;2023-08-08T04:02:24;13.92;79.86
75010;DHT22;63564;46.840;18.336;2023-08-08T04:05:25;14.00;79.37
75010;DHT22;63564;46.840;18.336;2023-08-08T04:08:25;14.09;79.48
75010;DHT22;63564;46.840;18.336;2023-08-08T04:11:26;14.08;78.88
75010;DHT22;63564;46.840;18.336;2023-08-08T04:14:26;14.15;78.63
75010;DHT22;63564;46.840;18.336;2023-08-08T04:17:27;14.25;78.82
75010;DHT22;63564;46.840;18.336;2023-08-08T04:20:27;14.38;77.11
75010;DHT22;63564;46.840;18.336;2023-08-08T04:23:28;14.42;77.51
75010;DHT22;63564;46.840;18.336;2023-08-08T04:26:28;14.55;77.25
75010;DHT22;63564;46.840;18.336;2023-08-08T04:29:28;14.49;77.79
75010;DHT22;63564;46.840;18.336;2023-08-08T04:32:29;14.48;78.46
75010;DHT22;63564;46.840;18.336;2023-08-08T04:35:29;14.52;77.26
75010;DHT22;63564;46.840;18.336;2023-08-08T04:38:30;14.67;77.40
75010;DHT22;63564;46.840;18.336;2023-08-08T04:41:30;14.67;76.84
75010;DHT22;63564;46.840;18.336;2023-08-08T04:44:30;14.76;76.71
75010;DHT22;63564;46.840;18.336;2023-08-08T04:47:31;14.83;75.95
75010;DHT22;63564;46.840;18.336;2023-08-08T04:50:31;15.12;74.22
75010;DHT22;63564;46.840;18.336;2023-08-08T04:53:32;15.04;75.72
75010;DHT22;63564;46.840;18.336;2023-08-08T04:56:32;15.12;75.41
75010;DHT22;63564;46.840;18.336;2023-08-08T04:59:33;15.24;74.57
75010;DHT22;63564;46.840;18.336;2023-08-08T05:02:33;15.21;74.97
75010;DHT22;63564;46.840;18.336;2023-08-08T05:05:34;15.39;73.99
75010;DHT22;63564;46.840;18.336;2023-08-08T05:08:34;15.43;73.68
75010;DHT22;63564;46.840;18.336;2023-08-08T05:11:35;15.53;72.57
75010;DHT22;63564;46.840;18.336;2023-08-08T05:14:36;15.67;72.47
75010;DHT22;63564;46.840;18.336;2023-08-08T05:17:36;15.66;73.06
75010;DHT22;63564;46.840;18.336;2023-08-08T05:20:37;15.60;73.02
75010;DHT22;63564;46.840;18.336;2023-08-08T05:23:37;15.74;72.84
75010;DHT22;63564;46.840;18.336;2023-08-08T05:26:38;15.89;71.43
75010;DHT22;63564;46.840;18.336;2023-08-08T05:29:38;15.82;73.35
75010;DHT22;63564;46.840;18.336;2023-08-08T05:32:39;15.91;71.50
75010;DHT22;63564;46.840;18.336;2023-08-08T05:35:39;16.01;73.13
75010;DHT22;63564;46.840;18.336;2023-08-08T05:38:40;16.22;71.02
75010;DHT22;63564;46.840;18.336;2023-08-08T05:41:41;16.27;71.03
75010;DHT22;63564;46.840;18.336;2023-08-08T05:44:42;16.38;70.24
75010;DHT22;63564;46.840;18.336;2023-08-08T05:47:42;16.34;70.77
75010;DHT22;63564;46.840;18.336;2023-08-08T05:50:43;16.52;69.34
75010;DHT22;63564;46.840;18.336;2023-08-08T05:53:43;16.72;68.53
75010;DHT22;63564;46.840;18.336;2023-08-08T05:56:43;16.77;68.43
75010;DHT22;63564;46.840;18.336;2023-08-08T05:59:44;16.87;67.28
75010;DHT22;63564;46.840;18.336;2023-08-08T06:02:45;16.79;69.03
75010;DHT22;63564;46.840;18.336;2023-08-08T06:05:45;16.92;68.52
75010;DHT22;63564;46.840;18.336;2023-08-08T06:08:46;16.96;68.84
75010;DHT22;63564;46.840;18.336;2023-08-08T06:11:47;16.99;68.86
75010;DHT22;63564;46.840;18.336;2023-08-08T06:14:47;17.09;69.96
75010;DHT22;63564;46.840;18.336;2023-08-08T06:17:48;17.21;69.51
75010;DHT22;63564;46.840;18.336;2023-08-08T06:20:49;17.30;67.76
75010;DHT22;63564;46.840;18.336;2023-08-08T06:23:49;17.38;66.55
75010;DHT22;63564;46.840;18.336;2023-08-08T06:26:50;17.49;68.09
75010;DHT22;63564;46.840;18.336;2023-08-08T06:29:50;17.30;66.78
75010;DHT22;63564;46.840;18.336;2023-08-08T06:32:51;17.40;66.23
75010;DHT22;63564;46.840;18.336;2023-08-08T06:35:51;17.26;69.99
75010;DHT22;63564;46.840;18.336;2023-08-08T06:38:52;17.42;68.34
75010;DHT22;63564;46.840;18.336;2023-08-08T06:41:52;17.30;68.99
75010;DHT22;63564;46.840;18.336;2023-08-08T06:44:53;17.35;67.70
75010;DHT22;63564;46.840;18.336;2023-08-08T06:47:53;17.51;66.79
75010;DHT22;63564;46.840;18.336;2023-08-08T06:50:54;17.93;63.69
75010;DHT22;63564;46.840;18.336;2023-08-08T06:53:54;18.06;64.37
75010;DHT22;63564;46.840;18.336;2023-08-08T06:56:55;17.92;64.76
75010;DHT22;63564;46.840;18.336;2023-08-08T06:59:57;18.00;63.36
75010;DHT22;63564;46.840;18.336;2023-08-08T07:02:57;17.96;65.82
75010;DHT22;63564;46.840;18.336;2023-08-08T07:05:58;18.06;63.62
75010;DHT22;63564;46.840;18.336;2023-08-08T07:08:58;18.05;64.81
75010;DHT22;63564;46.840;18.336;2023-08-08T07:11:59;18.13;64.29
75010;DHT22;63564;46.840;18.336;2023-08-08T07:14:59;18.05;64.58
75010;DHT22;63564;46.840;18.336;2023-08-08T07:18:00;18.22;63.70
75010;DHT22;63564;46.840;18.336;2023-08-08T07:21:00;18.55;63.25
75010;DHT22;63564;46.840;18.336;2023-08-08T07:24:00;18.45;65.13
75010;DHT22;63564;46.840;18.336;2023-08-08T14:02:55;22.82;47.03
75010;DHT22;63564;46.840;18.336;2023-08-08T14:05:55;23.68;43.57
75010;DHT22;63564;46.840;18.336;2023-08-08T14:08:56;25.03;43.15
75010;DHT22;63564;46.840;18.336;2023-08-08T14:11:57;26.06;39.96
75010;DHT22;63564;46.840;18.336;2023-08-08T14:14:59;24.05;46.79
75010;DHT22;63564;46.840;18.336;2023-08-08T14:17:59;23.10;46.91
75010;DHT22;63564;46.840;18.336;2023-08-08T14:20:59;22.58;47.43
75010;DHT22;63564;46.840;18.336;2023-08-08T14:24:00;22.67;47.77
75010;DHT22;63564;46.840;18.336;2023-08-08T14:27:02;22.69;47.81
75010;DHT22;63564;46.840;18.336;2023-08-08T14:30:03;23.18;46.60
75010;DHT22;63564;46.840;18.336;2023-08-08T14:33:04;23.37;45.21
75010;DHT22;63564;46.840;18.336;2023-08-08T14:36:04;23.48;46.35
75010;DHT22;63564;46.840;18.336;2023-08-08T14:39:05;23.10;44.73
75010;DHT22;63564;46.840;18.336;2023-08-08T14:42:07;22.77;46.22
75010;DHT22;63564;46.840;18.336;2023-08-08T14:45:07;22.37;47.04
75010;DHT22;63564;46.840;18.336;2023-08-08T14:48:08;22.00;48.21
75010;DHT22;63564;46.840;18.336;2023-08-08T14:51:08;22.04;46.71
75010;DHT22;63564;46.840;18.336;2023-08-08T14:54:08;22.35;46.42
75010;DHT22;63564;46.840;18.336;2023-08-08T14:57:09;22.97;44.52
75010;DHT22;63564;46.840;18.336;2023-08-08T15:00:10;22.31;49.44
75010;DHT22;63564;46.840;18.336;2023-08-08T15:03:12;22.07;48.46
75010;DHT22;63564;46.840;18.336;2023-08-08T15:06:14;21.96;50.11
75010;DHT22;63564;46.840;18.336;2023-08-08T15:09:14;22.04;47.05
75010;DHT22;63564;46.840;18.336;2023-08-08T15:12:16;22.31;49.60
75010;DHT22;63564;46.840;18.336;2023-08-08T15:15:16;22.55;55.03
75010;DHT22;63564;46.840;18.336;2023-08-08T15:18:18;22.86;48.82
75010;DHT22;63564;46.840;18.336;2023-08-08T15:21:19;22.80;50.18
75010;DHT22;63564;46.840;18.336;2023-08-08T15:24:19;22.20;47.81
75010;DHT22;63564;46.840;18.336;2023-08-08T15:27:20;22.08;46.48
75010;DHT22;63564;46.840;18.336;2023-08-08T15:30:20;22.17;48.19
75010;DHT22;63564;46.840;18.336;2023-08-08T15:33:21;22.17;48.18
75010;DHT22;63564;46.840;18.336;2023-08-08T15:36:21;21.97;48.06
75010;DHT22;63564;46.840;18.336;2023-08-08T15:39:22;21.84;49.29
75010;DHT22;63564;46.840;18.336;2023-08-08T15:42:23;21.74;48.84
75010;DHT22;63564;46.840;18.336;2023-08-08T15:45:23;21.62;48.32
75010;DHT22;63564;46.840;18.336;2023-08-08T15:48:23;21.81;48.13
75010;DHT22;63564;46.840;18.336;2023-08-08T15:51:24;22.29;50.75
75010;DHT22;63564;46.840;18.336;2023-08-08T15:54:24;22.39;49.22
75010;DHT22;63564;46.840;18.336;2023-08-08T15:57:25;22.44;47.71
75010;DHT22;63564;46.840;18.336;2023-08-08T16:00:25;22.05;50.43
75010;DHT22;63564;46.840;18.336;2023-08-08T16:03:25;21.52;51.90
75010;DHT22;63564;46.840;18.336;2023-08-08T16:06:26;21.31;51.29
75010;DHT22;63564;46.840;18.336;2023-08-08T16:09:26;21.11;53.86
75010;DHT22;63564;46.840;18.336;2023-08-08T16:12:27;21.01;53.62
75010;DHT22;63564;46.840;18.336;2023-08-08T16:15:27;21.12;57.19
75010;DHT22;63564;46.840;18.336;2023-08-08T16:18:28;21.38;54.28
75010;DHT22;63564;46.840;18.336;2023-08-08T16:21:29;21.25;53.87
75010;DHT22;63564;46.840;18.336;2023-08-08T16:24:29;21.25;54.71
75010;DHT22;63564;46.840;18.336;2023-08-08T16:27:29;21.50;54.63
75010;DHT22;63564;46.840;18.336;2023-08-08T16:30:30;21.59;56.31
75010;DHT22;63564;46.840;18.336;2023-08-08T16:33:30;21.42;56.09
75010;DHT22;63564;46.840;18.336;2023-08-08T16:36:31;21.12;55.34
75010;DHT22;63564;46.840;18.336;2023-08-08T16:39:31;21.28;57.24
75010;DHT22;63564;46.840;18.336;2023-08-08T16:42:31;21.39;56.24
75010;DHT22;63564;46.840;18.336;2023-08-08T16:45:32;21.36;56.03
75010;DHT22;63564;46.840;18.336;2023-08-08T16:48:32;21.24;59.13
75010;DHT22;63564;46.840;18.336;2023-08-08T16:51:34;21.21;55.10
75010;DHT22;63564;46.840;18.336;2023-08-08T16:54:34;21.08;54.76
75010;DHT22;63564;46.840;18.336;2023-08-08T16:57:35;21.12;55.74
75010;DHT22;63564;46.840;18.336;2023-08-08T17:00:35;21.24;55.90
75010;DHT22;63564;46.840;18.336;2023-08-08T17:03:36;20.98;59.55
75010;DHT22;63564;46.840;18.336;2023-08-08T17:06:38;20.90;57.02
75010;DHT22;63564;46.840;18.336;2023-08-08T17:09:39;20.98;56.12
75010;DHT22;63564;46.840;18.336;2023-08-08T17:12:40;21.04;55.97
75010;DHT22;63564;46.840;18.336;2023-08-08T17:15:41;20.98;55.95
75010;DHT22;63564;46.840;18.336;2023-08-08T17:18:42;20.87;55.93
75010;DHT22;63564;46.840;18.336;2023-08-08T17:21:43;20.81;55.34
75010;DHT22;63564;46.840;18.336;2023-08-08T17:24:44;20.66;56.45
75010;DHT22;63564;46.840;18.336;2023-08-08T17:27:44;20.61;57.14
75010;DHT22;63564;46.840;18.336;2023-08-08T17:30:45;20.44;56.66
75010;DHT22;63564;46.840;18.336;2023-08-08T17:33:46;20.26;57.01
75010;DHT22;63564;46.840;18.336;2023-08-08T17:36:47;20.28;57.34
75010;DHT22;63564;46.840;18.336;2023-08-08T17:39:49;20.18;58.75
75010;DHT22;63564;46.840;18.336;2023-08-08T17:42:49;20.08;58.33
75010;DHT22;63564;46.840;18.336;2023-08-08T17:45:51;20.02;57.42
75010;DHT22;63564;46.840;18.336;2023-08-08T17:48:51;19.94;57.99
75010;DHT22;63564;46.840;18.336;2023-08-08T17:51:53;19.84;58.23
75010;DHT22;63564;46.840;18.336;2023-08-08T17:54:54;19.70;58.03
75010;DHT22;63564;46.840;18.336;2023-08-08T17:57:55;19.56;58.92
75010;DHT22;63564;46.840;18.336;2023-08-08T18:00:55;19.45;59.09
75010;DHT22;63564;46.840;18.336;2023-08-08T18:03:57;19.31;59.35
75010;DHT22;63564;46.840;18.336;2023-08-08T18:06:58;19.12;60.13
75010;DHT22;63564;46.840;18.336;2023-08-08T18:09:58;19.02;59.13
75010;DHT22;63564;46.840;18.336;2023-08-08T18:12:59;18.94;59.24
75010;DHT22;63564;46.840;18.336;2023-08-08T18:16:00;18.88;59.41
75010;DHT22;63564;46.840;18.336;2023-08-08T18:19:02;18.78;60.07
75010;DHT22;63564;46.840;18.336;2023-08-08T18:22:03;18.64;60.61
75010;DHT22;63564;46.840;18.336;2023-08-08T18:25:06;18.47;61.58
75010;DHT22;63564;46.840;18.336;2023-08-08T18:28:08;18.38;61.73
75010;DHT22;63564;46.840;18.336;2023-08-08T18:31:10;18.38;62.00
75010;DHT22;63564;46.840;18.336;2023-08-08T18:34:12;18.40;62.17
75010;DHT22;63564;46.840;18.336;2023-08-08T18:37:18;18.34;62.34
75010;DHT22;63564;46.840;18.336;2023-08-08T18:40:21;18.29;62.30
75010;DHT22;63564;46.840;18.336;2023-08-08T18:43:26;18.26;62.40
75010;DHT22;63564;46.840;18.336;2023-08-08T18:46:28;18.22;62.56
75010;DHT22;63564;46.840;18.336;2023-08-08T18:49:29;18.14;62.85
75010;DHT22;63564;46.840;18.336;2023-08-08T18:52:30;18.13;63.22
75010;DHT22;63564;46.840;18.336;2023-08-08T18:55:31;18.06;63.45
75010;DHT22;63564;46.840;18.336;2023-08-08T18:58:32;18.02;64.39
75010;DHT22;63564;46.840;18.336;2023-08-08T19:01:33;18.02;64.16
75010;DHT22;63564;46.840;18.336;2023-08-08T19:04:34;17.88;64.63
75010;DHT22;63564;46.840;18.336;2023-08-08T19:07:37;17.92;64.47
75010;DHT22;63564;46.840;18.336;2023-08-08T19:10:38;17.86;64.97
75010;DHT22;63564;46.840;18.336;2023-08-08T19:13:40;17.72;65.39
75010;DHT22;63564;46.840;18.336;2023-08-08T19:16:41;17.72;65.63
75010;DHT22;63564;46.840;18.336;2023-08-08T19:19:42;17.67;65.90
75010;DHT22;63564;46.840;18.336;2023-08-08T19:22:43;17.65;66.03
75010;DHT22;63564;46.840;18.336;2023-08-08T19:25:46;17.69;65.85
75010;DHT22;63564;46.840;18.336;2023-08-08T19:28:47;17.68;66.00
75010;DHT22;63564;46.840;18.336;2023-08-08T19:31:48;17.61;66.49
75010;DHT22;63564;46.840;18.336;2023-08-08T19:34:49;17.58;66.60
75010;DHT22;63564;46.840;18.336;2023-08-08T19:37:50;17.47;67.01
75010;DHT22;63564;46.840;18.336;2023-08-08T19:40:51;17.49;66.92
75010;DHT22;63564;46.840;18.336;2023-08-08T19:43:52;17.47;67.05
75010;DHT22;63564;46.840;18.336;2023-08-08T19:46:55;17.47;67.61
75010;DHT22;63564;46.840;18.336;2023-08-08T19:49:56;17.38;67.96
75010;DHT22;63564;46.840;18.336;2023-08-08T19:52:56;17.34;68.72
75010;DHT22;63564;46.840;18.336;2023-08-08T19:55:57;17.21;69.47
75010;DHT22;63564;46.840;18.336;2023-08-08T19:59:01;17.11;70.38
75010;DHT22;63564;46.840;18.336;2023-08-08T20:02:02;17.07;70.73
75010;DHT22;63564;46.840;18.336;2023-08-08T20:05:05;17.03;70.98
75010;DHT22;63564;46.840;18.336;2023-08-08T20:08:06;17.07;71.41
75010;DHT22;63564;46.840;18.336;2023-08-08T20:11:07;17.07;71.15
75010;DHT22;63564;46.840;18.336;2023-08-08T20:14:08;16.97;71.10
75010;DHT22;63564;46.840;18.336;2023-08-08T20:17:10;17.02;71.16
75010;DHT22;63564;46.840;18.336;2023-08-08T20:20:11;17.02;71.02
75010;DHT22;63564;46.840;18.336;2023-08-08T20:23:12;16.96;71.12
75010;DHT22;63564;46.840;18.336;2023-08-08T20:26:13;17.00;70.33
75010;DHT22;63564;46.840;18.336;2023-08-08T20:29:13;16.93;70.33
75010;DHT22;63564;46.840;18.336;2023-08-08T20:32:14;16.86;70.91
75010;DHT22;63564;46.840;18.336;2023-08-08T20:35:15;16.89;71.34
75010;DHT22;63564;46.840;18.336;2023-08-08T20:38:15;16.80;71.79
75010;DHT22;63564;46.840;18.336;2023-08-08T20:41:16;16.71;72.56
75010;DHT22;63564;46.840;18.336;2023-08-08T20:44:17;16.64;72.25
75010;DHT22;63564;46.840;18.336;2023-08-08T20:47:18;16.59;72.76
75010;DHT22;63564;46.840;18.336;2023-08-08T20:50:20;16.51;72.90
75010;DHT22;63564;46.840;18.336;2023-08-08T20:53:21;16.45;73.23
75010;DHT22;63564;46.840;18.336;2023-08-08T20:56:21;16.45;73.26
75010;DHT22;63564;46.840;18.336;2023-08-08T20:59:23;16.44;73.40
75010;DHT22;63564;46.840;18.336;2023-08-08T21:02:24;16.29;73.86
75010;DHT22;63564;46.840;18.336;2023-08-08T21:05:24;16.24;74.37
75010;DHT22;63564;46.840;18.336;2023-08-08T21:08:25;16.18;74.40
75010;DHT22;63564;46.840;18.336;2023-08-08T21:11:25;16.08;74.93
75010;DHT22;63564;46.840;18.336;2023-08-08T21:14:26;16.03;74.95
75010;DHT22;63564;46.840;18.336;2023-08-08T21:17:26;16.01;74.93
75010;DHT22;63564;46.840;18.336;2023-08-08T21:20:27;16.00;75.33
75010;DHT22;63564;46.840;18.336;2023-08-08T21:23:27;15.96;75.96
75010;DHT22;63564;46.840;18.336;2023-08-08T21:26:28;15.93;75.59
75010;DHT22;63564;46.840;18.336;2023-08-08T21:29:28;15.94;75.41
75010;DHT22;63564;46.840;18.336;2023-08-08T21:32:28;15.93;75.39
75010;DHT22;63564;46.840;18.336;2023-08-08T21:35:29;15.87;76.26
75010;DHT22;63564;46.840;18.336;2023-08-08T21:38:29;15.80;76.51
75010;DHT22;63564;46.840;18.336;2023-08-08T21:41:30;15.83;76.39
75010;DHT22;63564;46.840;18.336;2023-08-08T21:44:30;15.70;77.34
75010;DHT22;63564;46.840;18.336;2023-08-08T21:47:30;15.78;76.43
75010;DHT22;63564;46.840;18.336;2023-08-08T21:50:31;15.72;76.71
75010;DHT22;63564;46.840;18.336;2023-08-08T21:53:31;15.74;76.43
75010;DHT22;63564;46.840;18.336;2023-08-08T21:56:33;15.73;76.33
75010;DHT22;63564;46.840;18.336;2023-08-08T21:59:33;15.66;76.34
75010;DHT22;63564;46.840;18.336;2023-08-08T22:02:34;15.62;76.27
75010;DHT22;63564;46.840;18.336;2023-08-08T22:05:34;15.60;75.99
75010;DHT22;63564;46.840;18.336;2023-08-08T22:08:34;15.67;75.80
75010;DHT22;63564;46.840;18.336;2023-08-08T22:11:35;15.74;75.38
75010;DHT22;63564;46.840;18.336;2023-08-08T22:14:35;15.76;75.39
75010;DHT22;63564;46.840;18.336;2023-08-08T22:17:36;15.73;75.39
75010;DHT22;63564;46.840;18.336;2023-08-08T22:20:36;15.70;75.56
75010;DHT22;63564;46.840;18.336;2023-08-08T22:23:36;15.67;75.67
75010;DHT22;63564;46.840;18.336;2023-08-08T22:26:37;15.60;75.84
75010;DHT22;63564;46.840;18.336;2023-08-08T22:29:37;15.58;76.00
75010;DHT22;63564;46.840;18.336;2023-08-08T22:32:38;15.55;76.16
75010;DHT22;63564;46.840;18.336;2023-08-08T22:35:38;15.46;76.66
75010;DHT22;63564;46.840;18.336;2023-08-08T22:38:39;15.45;76.63
75010;DHT22;63564;46.840;18.336;2023-08-08T22:41:39;15.49;76.55
75010;DHT22;63564;46.840;18.336;2023-08-08T22:44:40;15.51;76.48
75010;DHT22;63564;46.840;18.336;2023-08-08T22:47:40;15.49;76.71
75010;DHT22;63564;46.840;18.336;2023-08-08T22:50:41;15.49;76.82
75010;DHT22;63564;46.840;18.336;2023-08-08T22:53:43;15.51;77.25
75010;DHT22;63564;46.840;18.336;2023-08-08T22:56:43;15.48;77.48
75010;DHT22;63564;46.840;18.336;2023-08-08T22:59:44;15.43;77.59
75010;DHT22;63564;46.840;18.336;2023-08-08T23:02:45;15.49;77.81
75010;DHT22;63564;46.840;18.336;2023-08-08T23:05:45;15.48;77.84
75010;DHT22;63564;46.840;18.336;2023-08-08T23:08:45;15.48;78.16
75010;DHT22;63564;46.840;18.336;2023-08-08T23:11:46;15.42;78.22
75010;DHT22;63564;46.840;18.336;2023-08-08T23:14:46;15.35;78.68
75010;DHT22;63564;46.840;18.336;2023-08-08T23:17:47;15.25;79.15
75010;DHT22;63564;46.840;18.336;2023-08-08T23:20:47;15.21;79.32
75010;DHT22;63564;46.840;18.336;2023-08-08T23:23:49;15.20;79.22
75010;DHT22;63564;46.840;18.336;2023-08-08T23:26:49;15.17;79.34
75010;DHT22;63564;46.840;18.336;2023-08-08T23:29:50;15.12;79.57
75010;DHT22;63564;46.840;18.336;2023-08-08T23:32:50;15.17;79.44
75010;DHT22;63564;46.840;18.336;2023-08-08T23:35:51;15.14;79.73
75010;DHT22;63564;46.840;18.336;2023-08-08T23:38:52;15.17;79.75
75010;DHT22;63564;46.840;18.336;2023-08-08T23:41:53;15.15;79.80
75010;DHT22;63564;46.840;18.336;2023-08-08T23:44:53;15.14;79.89
75010;DHT22;63564;46.840;18.336;2023-08-08T23:47:53;15.05;80.01
75010;DHT22;63564;46.840;18.336;2023-08-08T23:50:54;15.07;80.03
75010;DHT22;63564;46.840;18.336;2023-08-08T23:53:54;15.07;80.20
75010;DHT22;63564;46.840;18.336;2023-08-08T23:56:54;15.05;80.25
75010;DHT22;63564;46.840;18.336;2023-08-08T23:59:55;15.07;80.42
